Time;durP1;ratioP1;P1;durP2;ratioP2;P2;SDS_P1;SDS_P2;PMS_P1;PMS_P2;Temp;Humidity;BMP_temperature;BMP_pressure;BME280_temperature;BME280_humidity;BME280_pressure;Samples;Min_cycle;Max_cycle;Signal;HPM_P1;HPM_P2
2022/07/25 00:01:39;;;;;;;8.05;5.08;;;;;;;14.72;100.00;99155.87;1726960;82;20883;-69
2022/07/25 00:04:07;;;;;;;11.08;5.95;;;;;;;14.69;100.00;99152.38;1731034;82;21262;-69
2022/07/25 00:06:35;;;;;;;13.13;5.97;;;;;;;14.66;100.00;99158.37;1735522;82;21074;-68
2022/07/25 00:09:02;;;;;;;10.85;5.37;;;;;;;14.63;100.00;99149.50;1728262;82;20932;-68
2022/07/25 00:11:30;;;;;;;7.62;5.25;;;;;;;14.59;100.00;99153.87;1722365;82;20975;-69
2022/07/25 00:13:59;;;;;;;7.05;5.47;;;;;;;14.55;100.00;99150.13;1731640;82;20975;-70
2022/07/25 00:16:27;;;;;;;9.28;5.78;;;;;;;14.54;100.00;99155.28;1716460;82;22230;-69
2022/07/25 00:18:55;;;;;;;6.12;5.47;;;;;;;14.52;100.00;99148.78;1735551;82;20916;-68
2022/07/25 00:21:22;;;;;;;6.87;5.25;;;;;;;14.51;100.00;99162.59;1736842;82;20924;-69
2022/07/25 00:23:49;;;;;;;6.67;4.87;;;;;;;14.47;100.00;99158.84;1716077;82;21184;-69
2022/07/25 00:26:16;;;;;;;8.87;5.23;;;;;;;14.44;100.00;99158.88;1719127;82;21026;-71
2022/07/25 00:28:44;;;;;;;7.55;5.15;;;;;;;14.39;100.00;99164.89;1721907;82;20915;-65
2022/07/25 00:31:11;;;;;;;10.53;5.85;;;;;;;14.34;100.00;99160.36;1737378;82;20981;-68
2022/07/25 00:33:39;;;;;;;13.55;5.10;;;;;;;14.27;100.00;99162.05;1732140;82;21664;-68
2022/07/25 00:36:08;;;;;;;12.03;4.70;;;;;;;14.23;100.00;99167.75;1737690;82;20892;-68
2022/07/25 00:38:34;;;;;;;5.45;4.60;;;;;;;14.20;100.00;99166.98;1732063;82;21265;-68
2022/07/25 00:41:02;;;;;;;7.62;4.87;;;;;;;14.17;100.00;99162.72;1735968;82;21152;-66
2022/07/25 00:43:29;;;;;;;5.45;4.95;;;;;;;14.18;100.00;99162.41;1739039;82;21000;-68
2022/07/25 00:45:57;;;;;;;8.43;5.08;;;;;;;14.18;100.00;99161.61;1731839;82;21430;-67
2022/07/25 00:48:26;;;;;;;7.03;4.90;;;;;;;14.12;100.00;99158.97;1723448;82;21002;-69
2022/07/25 00:50:55;;;;;;;8.53;4.97;;;;;;;14.16;100.00;99159.22;1714542;82;20879;-70
2022/07/25 00:53:21;;;;;;;;;;;;;;;14.16;100.00;99165.97;1740748;82;21236;-70
2022/07/25 00:55:48;;;;;;;6.17;5.00;;;;;;;14.12;100.00;99158.97;1733029;82;20418;-68
2022/07/25 00:58:15;;;;;;;7.60;5.28;;;;;;;14.10;100.00;99158.45;1714452;82;20927;-68
2022/07/25 01:00:42;;;;;;;9.45;4.67;;;;;;;14.09;100.00;99152.80;1713385;82;20895;-71
2022/07/25 01:03:08;;;;;;;7.47;4.50;;;;;;;14.09;100.00;99155.51;1727783;82;20991;-69
2022/07/25 01:05:35;;;;;;;6.25;4.55;;;;;;;14.08;100.00;99157.13;1724300;82;21097;-70
2022/07/25 01:08:03;;;;;;;7.80;4.58;;;;;;;14.06;100.00;99158.78;1726968;82;20944;-71
2022/07/25 01:10:31;;;;;;;10.95;5.53;;;;;;;14.05;100.00;99157.16;1733100;82;20970;-68
2022/07/25 01:12:58;;;;;;;8.93;5.25;;;;;;;14.05;100.00;99162.55;1716667;82;21005;-69
2022/07/25 01:15:25;;;;;;;10.82;5.30;;;;;;;14.04;100.00;99160.16;1739339;82;21010;-70
2022/07/25 01:17:52;;;;;;;8.95;5.28;;;;;;;14.01;100.00;99164.20;1720440;82;21381;-69
2022/07/25 01:20:24;;;;;;;6.03;4.30;;;;;;;13.98;100.00;99158.59;1715124;82;20872;-68
2022/07/25 01:22:51;;;;;;;8.10;5.00;;;;;;;13.97;100.00;99157.80;1697591;82;20883;-69
2022/07/25 01:25:18;;;;;;;4.90;4.50;;;;;;;13.99;100.00;99156.14;1721083;82;20992;-68
2022/07/25 01:27:46;;;;;;;13.78;5.10;;;;;;;13.92;100.00;99158.64;1714637;82;20864;-69
2022/07/25 01:30:15;;;;;;;10.05;5.42;;;;;;;13.91;100.00;99158.92;1730228;82;20876;-68
2022/07/25 01:32:43;;;;;;;8.33;4.90;;;;;;;13.87;100.00;99160.05;1720382;82;20974;-69
2022/07/25 01:35:09;;;;;;;8.77;5.57;;;;;;;13.85;100.00;99160.88;1705199;82;21574;-70
2022/07/25 01:37:36;;;;;;;7.20;4.95;;;;;;;13.81;100.00;99166.56;1711766;82;21601;-68
2022/07/25 01:40:05;;;;;;;8.05;4.80;;;;;;;13.79;100.00;99163.89;1711835;82;20946;-68
2022/07/25 01:42:32;;;;;;;9.05;5.40;;;;;;;13.78;100.00;99167.14;1721514;82;21066;-69
2022/07/25 01:44:59;;;;;;;5.97;5.12;;;;;;;13.75;100.00;99168.27;1738023;82;20927;-68
2022/07/25 01:47:26;;;;;;;8.10;4.75;;;;;;;13.69;100.00;99166.14;1719415;82;20907;-68
2022/07/25 01:49:52;;;;;;;10.93;5.65;;;;;;;13.63;100.00;99176.17;1722970;82;20871;-68
2022/07/25 01:52:19;;;;;;;8.03;5.22;;;;;;;13.60;100.00;99169.21;1722305;82;20982;-68
2022/07/25 01:54:46;;;;;;;6.45;4.47;;;;;;;13.58;100.00;99172.73;1719417;82;21446;-68
2022/07/25 01:57:12;;;;;;;6.55;4.97;;;;;;;13.53;100.00;99170.87;1723435;82;20942;-67
2022/07/25 01:59:39;;;;;;;12.53;5.17;;;;;;;13.54;100.00;99177.86;1722124;82;20968;-68
2022/07/25 02:02:08;;;;;;;7.42;4.97;;;;;;;13.54;100.00;99174.37;1721753;83;21590;-68
2022/07/25 02:04:36;;;;;;;6.08;5.05;;;;;;;13.51;100.00;99171.70;1717637;82;20984;-68
2022/07/25 02:07:03;;;;;;;7.08;5.12;;;;;;;13.51;100.00;99170.34;1714567;82;21491;-68
2022/07/25 02:09:30;;;;;;;7.37;5.28;;;;;;;13.50;100.00;99170.89;1718463;82;20930;-68
2022/07/25 02:11:57;;;;;;;5.60;5.10;;;;;;;13.51;100.00;99175.73;1714246;82;20973;-70
2022/07/25 02:14:23;;;;;;;8.20;5.08;;;;;;;13.50;100.00;99174.94;1714288;82;20954;-68
2022/07/25 02:16:50;;;;;;;6.55;5.20;;;;;;;13.54;100.00;99166.28;1716758;82;20930;-68
2022/07/25 02:19:19;;;;;;;9.30;4.75;;;;;;;13.56;100.00;99173.55;1717842;82;21257;-71
2022/07/25 02:21:46;;;;;;;6.03;4.92;;;;;;;13.57;100.00;99169.23;1715341;82;20938;-72
2022/07/25 02:24:13;;;;;;;9.10;4.80;;;;;;;13.62;100.00;99170.53;1717940;82;21662;-69
2022/07/25 02:26:41;;;;;;;8.73;5.30;;;;;;;13.67;100.00;99166.96;1720109;83;21009;-71
2022/07/25 02:29:07;;;;;;;11.28;5.58;;;;;;;13.71;100.00;99168.02;1704747;82;21046;-67
2022/07/25 02:31:35;;;;;;;6.33;5.33;;;;;;;13.70;100.00;99168.56;1716984;82;20883;-68
2022/07/25 02:34:03;;;;;;;8.95;5.15;;;;;;;13.68;100.00;99159.95;1715188;82;20910;-69
2022/07/25 02:36:30;;;;;;;6.15;4.78;;;;;;;13.67;100.00;99154.30;1720359;82;20911;-69
2022/07/25 02:38:56;;;;;;;7.50;4.78;;;;;;;13.68;100.00;99159.15;1718937;82;21002;-67
2022/07/25 02:41:23;;;;;;;8.95;5.60;;;;;;;13.69;100.00;99156.18;1718685;82;20965;-68
2022/07/25 02:43:50;;;;;;;8.73;5.05;;;;;;;13.74;100.00;99156.65;1714578;82;21158;-66
2022/07/25 02:46:17;;;;;;;7.75;4.85;;;;;;;13.72;100.00;99162.90;1714209;82;20934;-71
2022/07/25 02:48:43;;;;;;;8.40;5.28;;;;;;;13.78;100.00;99167.69;1713959;82;20978;-68
2022/07/25 02:51:12;;;;;;;6.15;4.97;;;;;;;13.81;100.00;99158.47;1717687;82;21145;-69
2022/07/25 02:53:39;;;;;;;4.90;4.50;;;;;;;13.83;100.00;99156.30;1732289;82;20991;-70
2022/07/25 02:56:07;;;;;;;14.38;4.90;;;;;;;13.88;100.00;99160.84;1737452;82;21290;-70
2022/07/25 02:58:34;;;;;;;5.12;4.17;;;;;;;13.94;100.00;99161.07;1720721;82;20931;-69
2022/07/25 03:01:01;;;;;;;7.28;4.83;;;;;;;14.01;100.00;99160.71;1723004;82;20919;-70
2022/07/25 03:03:27;;;;;;;4.97;4.45;;;;;;;14.09;100.00;99170.90;1731760;82;21535;-70
2022/07/25 03:05:56;;;;;;;;;;;;;;;14.15;100.00;99169.73;1728401;82;20939;-70
2022/07/25 03:08:22;;;;;;;4.75;4.30;;;;;;;14.23;100.00;99171.00;1716391;82;22147;-71
2022/07/25 03:10:49;;;;;;;8.48;4.17;;;;;;;14.32;100.00;99169.28;1717118;82;20911;-70
2022/07/25 03:13:16;;;;;;;6.20;4.40;;;;;;;14.41;100.00;99172.17;1714695;82;20883;-71
2022/07/25 03:15:43;;;;;;;4.10;3.70;;;;;;;14.50;100.00;99176.64;1706429;82;20892;-69
2022/07/25 03:18:10;;;;;;;5.95;3.70;;;;;;;14.59;100.00;99171.42;1734824;82;21523;-71
2022/07/25 03:20:38;;;;;;;4.22;3.77;;;;;;;14.71;100.00;99173.16;1725423;82;20990;-71
2022/07/25 03:23:05;;;;;;;8.28;3.75;;;;;;;14.76;100.00;99161.48;1725150;82;21565;-70
2022/07/25 03:25:32;;;;;;;5.37;3.42;;;;;;;14.88;100.00;99167.26;1729864;82;21515;-70
2022/07/25 03:27:58;;;;;;;5.95;3.83;;;;;;;14.98;100.00;99168.46;1725495;82;20928;-70
2022/07/25 03:30:25;;;;;;;4.75;3.65;;;;;;;15.10;100.00;99166.67;1720308;83;20957;-72
2022/07/25 03:32:53;;;;;;;5.42;3.15;;;;;;;15.14;100.00;99169.58;1737392;82;21169;-72
2022/07/25 03:35:21;;;;;;;3.92;3.50;;;;;;;15.28;100.00;99171.01;1714468;82;21038;-71
2022/07/25 03:37:47;;;;;;;15.08;4.78;;;;;;;15.42;100.00;99169.17;1714548;82;20918;-71
2022/07/25 03:40:15;;;;;;;6.10;3.00;;;;;;;15.53;100.00;99169.80;1721655;82;20880;-72
2022/07/25 03:42:43;;;;;;;8.00;3.52;;;;;;;15.63;100.00;99168.30;1726638;82;20884;-69
2022/07/25 03:45:10;;;;;;;8.03;3.17;;;;;;;15.80;100.00;99165.86;1728274;82;21725;-71
2022/07/25 03:47:37;;;;;;;2.90;2.70;;;;;;;15.96;100.00;99169.09;1734272;82;20982;-68
2022/07/25 03:50:06;;;;;;;9.00;5.55;;;;;;;16.08;100.00;99173.46;1707251;82;21013;-69
2022/07/25 03:52:32;;;;;;;10.93;6.42;;;;;;;16.19;100.00;99170.03;1735281;82;20994;-68
2022/07/25 03:54:59;;;;;;;6.53;5.05;;;;;;;16.36;100.00;99168.61;1720127;82;20836;-72
2022/07/25 03:57:26;;;;;;;8.33;5.92;;;;;;;16.55;100.00;99165.80;1728831;82;21125;-68
2022/07/25 03:59:53;;;;;;;7.17;3.70;;;;;;;16.67;100.00;99171.50;1718066;82;20844;-70
2022/07/25 04:02:20;;;;;;;8.15;4.35;;;;;;;16.81;100.00;99172.32;1732930;82;21399;-70
2022/07/25 04:04:46;;;;;;;8.03;6.95;;;;;;;16.97;100.00;99173.33;1720865;82;20930;-71
2022/07/25 04:07:13;;;;;;;6.03;4.90;;;;;;;17.21;100.00;99175.22;1711737;82;20927;-69
2022/07/25 04:09:40;;;;;;;5.25;4.25;;;;;;;17.37;100.00;99172.96;1719508;82;21230;-70
2022/07/25 04:12:09;;;;;;;6.42;2.92;;;;;;;17.57;100.00;99180.59;1716673;82;21100;-74
2022/07/25 04:14:36;;;;;;;3.37;2.37;;;;;;;17.61;100.00;99181.33;1711888;82;21049;-70
2022/07/25 04:17:03;;;;;;;3.20;2.72;;;;;;;17.69;100.00;99175.97;1730637;82;20970;-68
2022/07/25 04:19:30;;;;;;;3.25;2.83;;;;;;;17.98;100.00;99179.59;1736583;82;21067;-68
2022/07/25 04:21:57;;;;;;;7.58;3.40;;;;;;;18.09;100.00;99186.11;1727439;82;21121;-67
2022/07/25 04:24:24;;;;;;;6.12;4.62;;;;;;;18.21;100.00;99182.25;1732258;82;20872;-70
2022/07/25 04:26:50;;;;;;;5.35;3.33;;;;;;;18.31;100.00;99181.97;1732297;82;20987;-67
2022/07/25 04:29:19;;;;;;;4.42;3.72;;;;;;;18.35;100.00;99182.16;1724790;82;21167;-67
2022/07/25 04:31:46;;;;;;;11.57;7.53;;;;;;;18.61;100.00;99185.73;1734428;82;20840;-71
2022/07/25 04:34:12;;;;;;;13.72;9.83;;;;;;;18.89;100.00;99177.89;1730180;82;21103;-69
2022/07/25 04:36:40;;;;;;;9.73;7.07;;;;;;;18.97;100.00;99180.64;1711921;82;21489;-69
2022/07/25 04:39:06;;;;;;;8.70;3.83;;;;;;;19.19;100.00;99187.06;1730362;82;20880;-65
2022/07/25 04:41:33;;;;;;;6.22;3.33;;;;;;;19.24;100.00;99183.61;1729884;82;21124;-71
2022/07/25 04:44:00;;;;;;;5.45;2.40;;;;;;;19.36;100.00;99189.77;1714645;82;21515;-69
2022/07/25 04:46:27;;;;;;;2.35;2.02;;;;;;;19.43;100.00;99186.58;1734852;82;21156;-69
2022/07/25 04:48:53;;;;;;;4.33;2.67;;;;;;;19.46;100.00;99181.84;1725782;82;20876;-71
2022/07/25 04:51:20;;;;;;;4.85;2.45;;;;;;;19.19;100.00;99191.14;1734867;82;20892;-69
2022/07/25 04:53:47;;;;;;;5.50;2.50;;;;;;;19.22;100.00;99191.85;1724818;82;20864;-70
2022/07/25 04:56:16;;;;;;;2.55;2.35;;;;;;;19.34;100.00;99181.12;1731805;82;21383;-72
2022/07/25 04:58:43;;;;;;;6.08;2.80;;;;;;;19.46;100.00;99192.16;1716412;82;21152;-70
2022/07/25 05:01:09;;;;;;;5.28;3.08;;;;;;;19.59;100.00;99196.39;1737810;82;20935;-71
2022/07/25 05:03:36;;;;;;;4.78;3.15;;;;;;;19.88;100.00;99189.72;1738187;82;20845;-70
2022/07/25 05:06:04;;;;;;;5.30;3.02;;;;;;;20.04;100.00;99183.73;1739217;82;20919;-73
2022/07/25 05:08:33;;;;;;;3.62;2.45;;;;;;;19.98;100.00;99187.78;1707104;82;21050;-71
2022/07/25 05:11:00;;;;;;;3.47;2.10;;;;;;;20.12;100.00;99195.19;1737540;82;21239;-70
2022/07/25 05:13:28;;;;;;;4.12;3.00;;;;;;;20.01;100.00;99189.28;1715901;82;20946;-70
2022/07/25 05:15:55;;;;;;;3.53;2.80;;;;;;;20.13;100.00;99192.69;1722685;82;21428;-69
2022/07/25 05:18:21;;;;;;;4.25;2.87;;;;;;;20.30;100.00;99199.43;1711789;82;20930;-70
2022/07/25 05:20:48;;;;;;;6.03;2.83;;;;;;;20.37;100.00;99191.33;1712461;82;20875;-69
2022/07/25 05:23:15;;;;;;;2.90;2.37;;;;;;;20.82;100.00;99192.94;1723006;82;21892;-70
2022/07/25 05:25:42;;;;;;;2.87;2.67;;;;;;;20.85;100.00;99190.94;1715132;82;21433;-70
2022/07/25 05:28:10;;;;;;;2.72;2.52;;;;;;;20.87;100.00;99195.50;1718255;82;21215;-70
2022/07/25 05:30:39;;;;;;;2.75;2.15;;;;;;;20.83;100.00;99184.22;1737043;82;21014;-71
2022/07/25 05:33:06;;;;;;;3.42;2.50;;;;;;;20.63;100.00;99192.03;1728285;82;22537;-70
2022/07/25 05:35:34;;;;;;;4.70;2.45;;;;;;;20.96;100.00;99183.15;1714757;82;21003;-72
2022/07/25 05:38:01;;;;;;;3.93;2.57;;;;;;;21.24;100.00;99190.80;1722944;82;20931;-72
2022/07/25 05:40:28;;;;;;;2.55;2.02;;;;;;;21.32;100.00;99192.68;1724369;82;20931;-72
2022/07/25 05:42:54;;;;;;;3.22;2.30;;;;;;;21.65;100.00;99187.25;1735850;82;21536;-69
2022/07/25 05:45:21;;;;;;;4.17;2.30;;;;;;;21.70;100.00;99185.67;1732269;82;20900;-71
2022/07/25 05:47:48;;;;;;;2.85;2.37;;;;;;;21.16;100.00;99193.26;1728834;82;21231;-71
2022/07/25 05:50:15;;;;;;;4.55;3.02;;;;;;;20.94;100.00;99184.04;1726842;82;21397;-73
2022/07/25 05:52:41;;;;;;;4.90;3.47;;;;;;;20.64;100.00;99185.44;1695354;83;21445;-73
2022/07/25 05:55:09;;;;;;;6.03;3.50;;;;;;;20.00;100.00;99172.70;1683748;84;21127;-74
2022/07/25 05:57:36;;;;;;;;;;;;;;;19.79;100.00;99174.52;1693529;83;21001;-76
2022/07/25 06:00:06;;;;;;;8.17;2.90;;;;;;;19.89;100.00;99164.64;1673106;84;20548;-72
2022/07/25 06:02:33;;;;;;;5.05;4.12;;;;;;;20.09;100.00;99183.02;1683276;83;21090;-76
2022/07/25 06:05:00;;;;;;;7.53;4.47;;;;;;;20.05;100.00;99187.51;1696010;84;21029;-72
2022/07/25 06:07:27;;;;;;;3.42;2.77;;;;;;;19.87;100.00;99186.77;1686528;84;21413;-72
2022/07/25 06:09:54;;;;;;;2.55;2.35;;;;;;;19.82;100.00;99184.77;1689782;83;20930;-73
2022/07/25 06:12:22;;;;;;;7.78;2.65;;;;;;;19.94;100.00;99184.09;1683722;83;21318;-70
2022/07/25 06:14:49;;;;;;;4.47;2.00;;;;;;;20.74;100.00;99188.34;1694353;84;20890;-72
2022/07/25 06:17:16;;;;;;;2.67;2.47;;;;;;;21.07;100.00;99176.17;1685720;83;20875;-73
2022/07/25 06:19:45;;;;;;;3.12;2.00;;;;;;;20.53;100.00;99182.84;1688987;84;21210;-72
2022/07/25 06:22:12;;;;;;;4.47;2.60;;;;;;;20.48;100.00;99183.82;1687801;84;21030;-72
2022/07/25 06:24:39;;;;;;;4.33;2.30;;;;;;;21.23;100.00;99181.03;1684127;84;21870;-72
2022/07/25 06:27:07;;;;;;;3.15;1.95;;;;;;;21.39;100.00;99180.11;1685679;84;20933;-72
2022/07/25 06:29:33;;;;;;;10.60;2.70;;;;;;;21.03;100.00;99182.05;1689794;83;20986;-72
2022/07/25 06:32:01;;;;;;;3.72;2.08;;;;;;;20.58;100.00;99177.23;1689658;84;21567;-72
2022/07/25 06:34:29;;;;;;;2.77;1.98;;;;;;;20.40;100.00;99171.58;1672798;84;20920;-72
2022/07/25 06:36:57;;;;;;;2.45;2.25;;;;;;;20.37;100.00;99172.25;1676673;84;21125;-71
2022/07/25 06:39:24;;;;;;;2.20;2.00;;;;;;;20.48;100.00;99178.37;1685396;84;20934;-73
2022/07/25 06:41:51;;;;;;;;;;;;;;;20.96;100.00;99176.33;1675166;84;21486;-70
2022/07/25 06:44:18;;;;;;;4.08;2.17;;;;;;;21.40;100.00;99164.53;1685799;84;20163;-73
2022/07/25 06:46:45;;;;;;;2.27;2.00;;;;;;;21.54;100.00;99176.53;1687518;84;20873;-74
2022/07/25 06:49:13;;;;;;;2.27;2.00;;;;;;;21.17;100.00;99168.16;1672896;84;21663;-76
2022/07/25 06:51:40;;;;;;;4.10;3.80;;;;;;;20.96;100.00;99168.14;1733521;82;21193;-76
2022/07/25 06:54:07;;;;;;;8.08;7.12;;;;;;;20.69;100.00;99178.42;1736790;82;20963;-77
2022/07/25 06:56:34;;;;;;;10.72;7.55;;;;;;;20.61;100.00;99179.28;1719847;82;21332;-75
2022/07/25 06:59:01;;;;;;;9.40;8.45;;;;;;;21.04;100.00;99176.82;1731129;82;20936;-73
2022/07/25 07:01:29;;;;;;;5.95;5.25;;;;;;;21.43;100.00;99168.52;1720173;82;21310;-73
2022/07/25 07:03:56;;;;;;;4.78;2.85;;;;;;;22.33;100.00;99177.28;1712899;82;20871;-73
2022/07/25 07:06:23;;;;;;;4.60;4.25;;;;;;;22.77;100.00;99188.43;1735986;82;20927;-72
2022/07/25 07:08:51;;;;;;;3.58;2.05;;;;;;;22.35;100.00;99182.42;1722445;82;20947;-71
2022/07/25 07:11:21;;;;;;;2.10;1.90;;;;;;;22.57;100.00;99186.05;1728135;82;20839;-73
2022/07/25 07:13:49;;;;;;;2.45;2.00;;;;;;;23.05;100.00;99192.64;1720409;82;21223;-69
2022/07/25 07:16:16;;;;;;;;;;;;;;;23.37;100.00;99195.52;1733446;82;21106;-68
2022/07/25 07:18:44;;;;;;;1.75;1.60;;;;;;;23.64;100.00;99183.51;1719150;82;20115;-70
2022/07/25 07:21:12;;;;;;;2.67;1.70;;;;;;;24.04;100.00;99194.41;1719907;82;21517;-72
2022/07/25 07:23:39;;;;;;;1.92;1.30;;;;;;;24.42;100.00;99191.61;1719327;82;20882;-76
2022/07/25 07:26:06;;;;;;;1.10;1.00;;;;;;;24.52;88.87;99195.23;1719679;82;21210;-71
2022/07/25 07:28:33;;;;;;;1.95;1.50;;;;;;;24.16;100.00;99194.91;1736360;82;21042;-71
2022/07/25 07:30:59;;;;;;;2.20;1.47;;;;;;;23.43;97.48;99195.48;1702517;83;21008;-71
2022/07/25 07:33:26;;;;;;;7.58;1.87;;;;;;;22.98;100.00;99192.43;1712019;82;20983;-72
2022/07/25 07:35:55;;;;;;;1.67;1.30;;;;;;;22.90;100.00;99190.57;1731332;82;20915;-71
2022/07/25 07:38:24;;;;;;;3.20;1.50;;;;;;;23.05;100.00;99187.72;1731393;82;21637;-71
2022/07/25 07:40:52;;;;;;;2.12;1.57;;;;;;;22.76;100.00;99185.48;1711575;82;20986;-70
2022/07/25 07:43:20;;;;;;;5.10;1.80;;;;;;;22.49;100.00;99192.45;1735296;82;21595;-71
2022/07/25 07:45:46;;;;;;;3.45;1.67;;;;;;;22.81;100.00;99188.55;1722649;82;21450;-73
2022/07/25 07:48:13;;;;;;;3.42;1.67;;;;;;;23.24;100.00;99192.58;1700952;82;20940;-70
2022/07/25 07:50:41;;;;;;;;;;;;;;;23.41;100.00;99194.23;1717227;82;21348;-73
2022/07/25 07:53:08;;;;;;;1.92;1.42;;;;;;;22.96;100.00;99194.67;1715775;82;20413;-73
2022/07/25 07:55:54;;;;;;;5.08;1.60;;;;;;;22.44;100.00;99188.00;1734344;82;20955;-72
2022/07/25 07:58:18;;;;;;;2.05;1.92;;;;;;;22.13;100.00;99191.82;1714368;82;20947;-71
2022/07/25 08:00:48;;;;;;;4.55;1.65;;;;;;;21.87;100.00;99188.00;1738270;82;20990;-71
2022/07/25 08:03:19;;;;;;;3.10;1.62;;;;;;;22.36;100.00;99185.36;1734127;82;21214;-72
2022/07/25 08:05:47;;;;;;;4.53;1.60;;;;;;;23.40;97.80;99177.02;1730291;82;21411;-73
2022/07/25 08:08:15;;;;;;;4.17;2.50;;;;;;;23.75;89.68;99184.64;1707325;82;33245;-72
2022/07/25 08:10:46;;;;;;;4.78;3.42;;;;;;;23.66;98.06;99199.81;1704326;82;20951;-75
2022/07/25 08:13:25;;;;;;;3.55;2.33;;;;;;;23.65;98.72;99194.13;1720125;82;21394;-73
2022/07/25 08:15:58;;;;;;;5.62;2.00;;;;;;;24.07;92.35;99198.38;1690644;84;21357;-75
2022/07/25 08:18:31;;;;;;;4.75;2.00;;;;;;;24.21;85.04;99197.96;1662730;84;20947;-71
2022/07/25 08:21:02;;;;;;;1.80;1.32;;;;;;;23.96;93.46;99198.12;1713070;82;21516;-71
2022/07/25 08:23:30;;;;;;;2.00;1.32;;;;;;;24.00;88.63;99198.20;1725663;82;20990;-71
2022/07/25 08:25:58;;;;;;;3.02;1.90;;;;;;;23.94;93.49;99193.56;1726881;82;21610;-68
2022/07/25 08:28:24;;;;;;;1.30;1.20;;;;;;;23.80;92.57;99190.44;1716302;82;22074;-71
2022/07/25 08:30:52;;;;;;;1.90;1.70;;;;;;;23.38;100.00;99183.98;1714683;82;20966;-74
2022/07/25 08:33:19;;;;;;;;;;;;;;;23.03;100.00;99195.50;1717067;82;20875;-72
2022/07/25 08:43:28;;;;;;;5.05;1.60;;;;;;;23.26;100.00;99186.19;1729045;80;21286;-75
2022/07/25 08:45:55;;;;;;;2.05;1.50;;;;;;;23.20;100.00;99190.30;1681041;82;20943;-73
2022/07/25 08:48:24;;;;;;;1.95;1.30;;;;;;;23.99;100.00;99188.39;1697130;81;20896;-74
2022/07/25 08:50:51;;;;;;;2.50;1.50;;;;;;;24.69;85.80;99191.29;1729955;81;21035;-72
2022/07/25 08:53:20;;;;;;;3.00;1.30;;;;;;;24.61;80.35;99196.40;1726327;82;21557;-72
2022/07/25 08:55:47;;;;;;;1.62;1.17;;;;;;;23.99;85.78;99189.19;1729001;82;21148;-74
2022/07/25 08:58:15;;;;;;;2.10;1.30;;;;;;;23.18;96.82;99193.40;1717681;82;21425;-73
2022/07/25 09:00:44;;;;;;;2.17;1.60;;;;;;;22.52;100.00;99195.07;1710127;82;20904;-76
2022/07/25 09:03:11;;;;;;;8.40;1.80;;;;;;;22.16;100.00;99194.66;1728088;82;20858;-71
2022/07/25 09:05:38;;;;;;;3.02;1.50;;;;;;;22.30;100.00;99194.38;1726015;82;20908;-72
2022/07/25 09:08:13;;;;;;;5.55;2.60;;;;;;;22.22;100.00;99178.31;1708569;82;21784;-69
2022/07/25 09:10:46;;;;;;;4.53;3.00;;;;;;;22.72;100.00;99190.03;1723814;82;20963;-69
2022/07/25 09:13:13;;;;;;;1.75;1.47;;;;;;;23.59;100.00;99190.06;1722111;82;20892;-73
2022/07/25 09:15:47;;;;;;;5.78;1.85;;;;;;;23.82;88.00;99190.31;1711362;82;21075;-69
2022/07/25 09:18:17;;;;;;;3.85;1.45;;;;;;;23.64;91.93;99193.91;1727194;82;20920;-74
2022/07/25 09:20:50;;;;;;;3.05;1.40;;;;;;;23.62;91.82;99200.31;1726209;82;21308;-71
2022/07/25 09:23:37;;;;;;;3.92;1.82;;;;;;;23.54;94.51;99201.24;1702593;82;21003;-72
2022/07/25 09:26:09;;;;;;;;;;;;;;;23.77;93.30;99190.56;1728990;82;20916;-72
2022/07/25 09:28:47;;;;;;;3.92;2.87;;;;;;;23.44;95.54;99193.53;1709885;82;20111;-72
2022/07/25 09:31:16;;;;;;;6.67;3.00;;;;;;;23.16;100.00;99190.20;1730555;82;21035;-71
2022/07/25 09:33:55;;;;;;;4.10;2.30;;;;;;;22.93;100.00;99187.71;1719967;82;22145;-70
2022/07/25 09:36:21;;;;;;;5.45;2.80;;;;;;;23.14;100.00;99195.80;1726882;82;20959;-74
2022/07/25 09:39:01;;;;;;;3.02;1.82;;;;;;;23.80;98.42;99185.75;1727932;82;21067;-75
2022/07/25 09:41:36;;;;;;;4.72;2.02;;;;;;;24.07;90.16;99189.58;1730603;82;20975;-69
2022/07/25 09:44:06;;;;;;;3.87;3.08;;;;;;;23.78;91.05;99189.98;1723771;82;20929;-72
2022/07/25 09:46:32;;;;;;;2.98;1.90;;;;;;;23.21;94.47;99182.33;1708527;82;21545;-70
2022/07/25 09:48:59;;;;;;;4.72;1.87;;;;;;;23.33;93.82;99186.39;1726225;82;20980;-71
2022/07/25 09:51:26;;;;;;;2.95;2.27;;;;;;;24.12;91.94;99185.78;1706352;82;21010;-73
2022/07/25 09:53:56;;;;;;;5.37;1.83;;;;;;;24.57;78.41;99181.80;1717359;81;20976;-77
2022/07/25 09:56:23;;;;;;;3.15;1.72;;;;;;;24.86;82.01;99185.98;1717117;82;20886;-72
2022/07/25 09:58:51;;;;;;;2.43;1.37;;;;;;;25.44;75.70;99186.65;1716332;82;21160;-74
2022/07/25 10:01:25;;;;;;;1.72;1.62;;;;;;;25.51;69.66;99190.12;1716367;82;20898;-72
2022/07/25 10:04:27;;;;;;;4.47;1.87;;;;;;;24.85;70.13;99189.11;1717349;82;21162;-79
2022/07/25 10:07:09;;;;;;;6.90;2.00;;;;;;;24.74;71.75;99180.06;1665210;84;20968;-71
2022/07/25 10:09:50;;;;;;;6.62;2.98;;;;;;;24.83;80.95;99171.61;1668638;84;21141;-72
2022/07/25 10:12:21;;;;;;;3.00;2.10;;;;;;;24.39;75.29;99180.77;1668632;84;21165;-74
2022/07/25 10:15:14;;;;;;;3.85;1.90;;;;;;;24.29;77.61;99175.03;1672075;85;20946;-73
